createdAt,value
2018-06-10T00:00:26.448Z,19.48
2018-06-10T00:02:55.009Z,19.66
2018-06-10T00:05:23.609Z,19.85
2018-06-10T00:07:52.214Z,20.02
2018-06-10T00:10:20.883Z,20.14
2018-06-10T00:12:49.477Z,20.02
2018-06-10T00:15:18.112Z,20.03
2018-06-10T00:17:46.697Z,20.10
2018-06-10T00:20:15.356Z,20.12
2018-06-10T00:22:43.944Z,20.12
2018-06-10T00:25:12.600Z,20.09
2018-06-10T00:27:41.271Z,20.24
2018-06-10T00:30:09.935Z,20.33
2018-06-10T00:32:38.618Z,20.38
2018-06-10T00:35:07.238Z,20.30
2018-06-10T00:37:35.831Z,20.34
2018-06-10T00:40:04.507Z,20.42
2018-06-10T00:42:33.104Z,20.37
2018-06-10T00:45:02.027Z,20.46
2018-06-10T00:47:30.625Z,20.51
2018-06-10T00:49:59.174Z,20.44
2018-06-10T00:52:27.751Z,20.25
2018-06-10T00:54:56.327Z,20.31
2018-06-10T00:57:25.020Z,20.37
2018-06-10T00:59:53.711Z,20.42
2018-06-10T01:02:22.592Z,20.48
2018-06-10T01:04:51.181Z,20.52
2018-06-10T01:07:20.055Z,20.57
2018-06-10T01:09:48.643Z,20.60
2018-06-10T01:12:17.253Z,20.63
2018-06-10T01:14:45.813Z,20.52
2018-06-10T01:17:14.435Z,20.47
2018-06-10T01:19:43.071Z,20.43
2018-06-10T01:22:11.811Z,20.41
2018-06-10T01:24:40.556Z,20.48
2018-06-10T01:27:09.474Z,20.47
2018-06-10T01:29:38.184Z,20.47
2018-06-10T01:32:06.765Z,20.35
2018-06-10T01:34:35.730Z,20.36
2018-06-10T01:37:04.320Z,20.40
2018-06-10T01:39:32.941Z,20.52
2018-06-10T01:42:01.821Z,20.64
2018-06-10T01:44:30.393Z,20.77
2018-06-10T01:46:59.069Z,20.68
2018-06-10T01:49:27.841Z,20.41
2018-06-10T01:51:56.561Z,20.45
2018-06-10T01:54:25.228Z,20.43
2018-06-10T01:56:54.096Z,20.44
2018-06-10T01:59:22.993Z,20.37
2018-06-10T02:01:51.556Z,20.35
2018-06-10T02:04:20.178Z,20.35
2018-06-10T02:06:48.756Z,20.29
2018-06-10T02:09:17.342Z,20.22
2018-06-10T02:11:46.151Z,20.20
2018-06-10T02:14:14.717Z,19.98
2018-06-10T02:16:43.363Z,19.91
2018-06-10T02:19:11.997Z,19.96
2018-06-10T02:21:40.629Z,19.89
2018-06-10T02:24:09.216Z,19.93
2018-06-10T02:26:37.876Z,19.80
2018-06-10T02:29:06.516Z,19.85
2018-06-10T02:31:35.101Z,19.95
2018-06-10T02:34:03.664Z,20.08
2018-06-10T02:36:32.399Z,20.10
2018-06-10T02:39:01.076Z,20.09
2018-06-10T02:41:29.696Z,20.11
2018-06-10T02:43:58.317Z,20.11
2018-06-10T02:46:26.902Z,20.16
2018-06-10T02:48:55.463Z,20.17
2018-06-10T02:51:24.094Z,20.01
2018-06-10T02:53:52.653Z,19.83
2018-06-10T02:56:21.272Z,19.67
2018-06-10T02:58:49.949Z,19.61
2018-06-10T03:01:18.640Z,19.61
2018-06-10T03:03:47.354Z,19.67
2018-06-10T03:06:15.904Z,19.76
2018-06-10T03:08:44.496Z,19.89
2018-06-10T03:11:13.318Z,19.99
2018-06-10T03:13:41.893Z,20.05
2018-06-10T03:16:10.443Z,20.08
2018-06-10T03:18:39.061Z,20.05
2018-06-10T03:21:07.822Z,19.94
2018-06-10T03:23:36.380Z,19.82
2018-06-10T03:26:04.953Z,19.90
2018-06-10T03:28:33.654Z,19.95
2018-06-10T03:31:02.269Z,19.94
2018-06-10T03:33:30.814Z,19.91
2018-06-10T03:35:59.624Z,19.95
2018-06-10T03:38:28.413Z,19.91
2018-06-10T03:40:57.061Z,19.94
2018-06-10T03:43:25.790Z,19.93
2018-06-10T03:45:54.491Z,19.92
2018-06-10T03:48:23.061Z,19.93
2018-06-10T03:50:51.715Z,19.97
2018-06-10T03:53:20.258Z,19.99
2018-06-10T03:55:48.845Z,20.03
2018-06-10T03:58:17.424Z,20.02
2018-06-10T04:00:46.037Z,19.65
2018-06-10T04:03:14.673Z,19.44
2018-06-10T04:05:43.277Z,19.13
2018-06-10T04:08:11.861Z,19.05
2018-06-10T04:10:40.729Z,18.96
2018-06-10T04:13:09.512Z,19.04
2018-06-10T04:15:38.320Z,19.22
2018-06-10T04:18:06.858Z,19.32
2018-06-10T04:20:35.536Z,19.26
2018-06-10T04:23:04.108Z,19.25
2018-06-10T04:25:32.716Z,19.19
2018-06-10T04:28:01.308Z,19.23
2018-06-10T04:30:29.879Z,19.15
2018-06-10T04:32:58.477Z,19.17
2018-06-10T04:35:27.287Z,19.28
2018-06-10T04:37:55.913Z,19.46
2018-06-10T04:40:24.453Z,19.45
2018-06-10T04:42:53.032Z,19.32
2018-06-10T04:45:21.587Z,19.30
2018-06-10T04:47:50.180Z,19.44
2018-06-10T04:50:18.747Z,19.46
2018-06-10T04:52:47.353Z,19.45
2018-06-10T04:55:15.916Z,19.45
2018-06-10T04:57:44.496Z,19.46
2018-06-10T05:00:13.029Z,19.46
2018-06-10T05:02:42.014Z,19.53
2018-06-10T05:05:10.608Z,19.61
2018-06-10T05:07:39.190Z,19.69
2018-06-10T05:10:07.797Z,19.75
2018-06-10T05:12:36.348Z,19.76
2018-06-10T05:15:05.064Z,19.84
2018-06-10T05:17:33.629Z,19.93
2018-06-10T05:20:02.279Z,19.98
2018-06-10T05:22:30.896Z,20.02
2018-06-10T05:24:59.505Z,20.05
2018-06-10T05:27:28.216Z,20.07
2018-06-10T05:29:56.815Z,20.14
2018-06-10T05:32:26.185Z,20.21
2018-06-10T05:34:54.784Z,20.23
2018-06-10T05:37:23.398Z,20.06
2018-06-10T05:39:52.039Z,20.09
2018-06-10T05:42:20.570Z,20.05
2018-06-10T05:44:49.267Z,20.04
2018-06-10T05:47:17.923Z,20.08
2018-06-10T05:49:46.505Z,20.14
2018-06-10T05:52:15.023Z,20.15
2018-06-10T05:54:43.740Z,20.16
2018-06-10T05:57:12.631Z,20.25
2018-06-10T05:59:41.307Z,20.31
2018-06-10T06:02:09.844Z,20.34
2018-06-10T06:04:38.425Z,20.31
2018-06-10T06:07:07.022Z,20.26
2018-06-10T06:09:35.666Z,20.36
2018-06-10T06:12:04.376Z,20.43
2018-06-10T06:14:32.949Z,20.56
2018-06-10T06:17:01.895Z,20.56
2018-06-10T06:19:30.487Z,20.61
2018-06-10T06:21:59.091Z,20.48
2018-06-10T06:24:27.840Z,20.54
2018-06-10T06:26:56.449Z,20.51
2018-06-10T06:29:25.056Z,20.58
2018-06-10T06:31:53.690Z,20.60
2018-06-10T06:34:22.236Z,20.63
2018-06-10T06:36:50.885Z,20.64
2018-06-10T06:39:19.445Z,20.79
2018-06-10T06:41:48.040Z,20.75
2018-06-10T06:44:16.589Z,20.85
2018-06-10T06:46:45.210Z,20.87
2018-06-10T06:49:13.954Z,20.86
2018-06-10T06:51:42.533Z,20.74
2018-06-10T06:54:11.117Z,20.82
2018-06-10T06:56:39.775Z,20.94
2018-06-10T06:59:08.361Z,21.05
2018-06-10T07:01:36.933Z,21.03
2018-06-10T07:04:05.633Z,21.13
2018-06-10T07:06:34.201Z,21.21
2018-06-10T07:09:02.969Z,21.20
2018-06-10T07:11:31.873Z,21.40
2018-06-10T07:14:00.521Z,21.38
2018-06-10T07:16:29.108Z,21.31
2018-06-10T07:18:58.435Z,21.37
2018-06-10T07:21:27.028Z,21.32
2018-06-10T07:23:55.672Z,21.50
2018-06-10T07:26:24.236Z,21.39
2018-06-10T07:28:54.800Z,21.48
2018-06-10T07:31:23.337Z,21.59
2018-06-10T07:33:52.464Z,21.54
2018-06-10T07:36:21.020Z,21.39
2018-06-10T07:38:49.693Z,21.59
2018-06-10T07:41:18.334Z,21.68
2018-06-10T07:43:46.896Z,21.79
2018-06-10T07:46:15.538Z,21.83
2018-06-10T07:48:44.094Z,21.77
2018-06-10T07:51:12.717Z,21.89
2018-06-10T07:53:41.281Z,21.66
2018-06-10T07:56:09.932Z,21.62
2018-06-10T07:58:38.536Z,21.63
2018-06-10T08:01:07.170Z,21.60
2018-06-10T08:03:35.985Z,21.74
2018-06-10T08:06:04.589Z,21.56
2018-06-10T08:08:33.140Z,21.56
2018-06-10T08:11:01.753Z,21.42
2018-06-10T08:13:30.375Z,21.53
2018-06-10T08:15:59.001Z,21.52
2018-06-10T08:18:27.613Z,21.56
2018-06-10T08:20:56.225Z,21.53
2018-06-10T08:23:25.549Z,21.53
2018-06-10T08:25:54.117Z,21.44
2018-06-10T08:28:22.750Z,21.50
2018-06-10T08:30:51.272Z,21.60
2018-06-10T08:33:19.981Z,21.59
2018-06-10T08:35:48.581Z,21.61
2018-06-10T08:38:17.203Z,21.57
2018-06-10T08:40:45.773Z,21.57
2018-06-10T08:43:14.376Z,21.51
2018-06-10T08:45:43.017Z,21.66
2018-06-10T08:48:11.613Z,21.78
2018-06-10T08:50:40.237Z,21.87
2018-06-10T08:53:08.832Z,22.06
2018-06-10T08:55:37.464Z,22.24
2018-06-10T08:58:06.193Z,22.01
2018-06-10T09:00:34.849Z,22.18
2018-06-10T09:03:03.435Z,22.16
2018-06-10T09:05:32.084Z,22.05
2018-06-10T09:08:00.679Z,21.97
2018-06-10T09:10:29.457Z,22.02
2018-06-10T09:12:58.228Z,22.03
2018-06-10T09:15:26.863Z,22.25
2018-06-10T09:17:55.470Z,22.07
2018-06-10T09:20:24.414Z,22.12
2018-06-10T09:22:52.966Z,22.25
2018-06-10T09:25:21.594Z,22.49
2018-06-10T09:27:50.183Z,22.54
2018-06-10T09:30:18.814Z,22.54
2018-06-10T09:32:47.420Z,22.53
2018-06-10T09:35:16.114Z,22.50
2018-06-10T09:37:44.709Z,22.62
2018-06-10T09:40:13.313Z,22.72
2018-06-10T09:42:41.959Z,22.84
2018-06-10T09:45:10.681Z,22.87
2018-06-10T09:47:39.304Z,22.97
2018-06-10T09:50:07.921Z,23.06
2018-06-10T09:52:36.540Z,23.05
2018-06-10T09:55:05.160Z,23.21
2018-06-10T09:57:33.841Z,23.18
2018-06-10T10:00:02.482Z,23.39
2018-06-10T10:02:31.112Z,23.45
2018-06-10T10:04:59.688Z,23.57
2018-06-10T10:07:28.334Z,23.85
2018-06-10T10:09:57.188Z,23.74
2018-06-10T10:12:25.813Z,23.85
2018-06-10T10:14:54.525Z,23.80
2018-06-10T10:17:23.228Z,23.90
2018-06-10T10:19:51.799Z,24.17
2018-06-10T10:22:20.473Z,24.25
2018-06-10T10:24:49.073Z,24.41
2018-06-10T10:27:17.700Z,24.28
2018-06-10T10:29:46.429Z,24.10
2018-06-10T10:32:15.262Z,24.18
2018-06-10T10:34:43.870Z,24.36
2018-06-10T10:37:12.441Z,24.55
2018-06-10T10:39:41.107Z,24.63
2018-06-10T10:42:09.709Z,24.68
2018-06-10T10:44:38.357Z,24.40
2018-06-10T10:47:06.976Z,24.53
2018-06-10T10:49:35.805Z,24.39
2018-06-10T10:52:04.599Z,24.55
2018-06-10T10:54:33.251Z,24.67
2018-06-10T10:57:02.136Z,24.68
2018-06-10T10:59:30.819Z,24.53
2018-06-10T11:01:59.437Z,24.47
2018-06-10T11:04:28.227Z,24.57
2018-06-10T11:06:56.785Z,24.89
2018-06-10T11:09:25.573Z,25.11
2018-06-10T11:11:54.136Z,25.12
2018-06-10T11:14:22.762Z,25.32
2018-06-10T11:16:51.340Z,25.76
2018-06-10T11:19:19.985Z,25.86
2018-06-10T11:21:48.665Z,25.55
2018-06-10T11:24:17.288Z,25.38
2018-06-10T11:26:45.935Z,24.97
2018-06-10T11:29:14.604Z,25.08
2018-06-10T11:31:43.431Z,25.27
2018-06-10T11:34:12.026Z,25.38
2018-06-10T11:36:40.756Z,25.61
2018-06-10T11:39:09.820Z,25.71
2018-06-10T11:41:38.429Z,25.79
2018-06-10T11:44:07.005Z,25.88
2018-06-10T11:46:35.697Z,26.15
2018-06-10T11:49:04.382Z,25.95
2018-06-10T11:51:33.108Z,26.22
2018-06-10T11:54:01.703Z,26.28
2018-06-10T11:56:30.320Z,26.10
2018-06-10T11:58:58.928Z,25.91
2018-06-10T12:01:27.610Z,26.02
2018-06-10T12:03:56.286Z,26.45
2018-06-10T12:06:24.936Z,26.53
2018-06-10T12:08:53.487Z,26.74
2018-06-10T12:11:22.116Z,26.56
2018-06-10T12:13:50.762Z,26.99
2018-06-10T12:16:19.366Z,26.57
2018-06-10T12:18:48.041Z,26.69
2018-06-10T12:21:16.697Z,26.41
2018-06-10T12:23:45.259Z,26.20
2018-06-10T12:26:13.957Z,26.05
2018-06-10T12:28:42.630Z,25.91
2018-06-10T12:31:11.259Z,25.72
2018-06-10T12:33:39.896Z,25.56
2018-06-10T12:36:08.468Z,26.15
2018-06-10T12:38:37.170Z,26.73
2018-06-10T12:41:05.832Z,27.26
2018-06-10T12:43:34.483Z,27.48
2018-06-10T12:46:03.092Z,27.79
2018-06-10T12:48:32.025Z,27.69
2018-06-10T12:51:00.668Z,27.62
2018-06-10T12:53:29.293Z,27.59
2018-06-10T12:55:57.881Z,27.61
2018-06-10T12:58:26.600Z,27.66
2018-06-10T13:00:55.296Z,27.49
2018-06-10T13:03:23.928Z,27.63
2018-06-10T13:05:52.584Z,27.91
2018-06-10T13:08:21.222Z,27.78
2018-06-10T13:10:49.836Z,27.81
2018-06-10T13:13:18.452Z,28.39
2018-06-10T13:15:47.056Z,28.55
2018-06-10T13:18:15.784Z,28.60
2018-06-10T13:20:44.403Z,28.54
2018-06-10T13:23:13.065Z,28.47
2018-06-10T13:25:41.700Z,28.21
2018-06-10T13:28:10.370Z,28.44
2018-06-10T13:30:38.973Z,28.62
2018-06-10T13:33:07.570Z,28.98
2018-06-10T13:35:36.271Z,29.11
2018-06-10T13:38:05.128Z,29.27
2018-06-10T13:40:33.759Z,28.53
2018-06-10T13:43:02.555Z,28.45
2018-06-10T13:45:31.169Z,28.35
2018-06-10T13:47:59.739Z,28.42
2018-06-10T13:50:28.384Z,28.47
2018-06-10T13:52:57.288Z,28.66
2018-06-10T13:55:25.900Z,28.60
2018-06-10T13:57:54.543Z,29.14
2018-06-10T14:00:23.113Z,29.18
2018-06-10T14:02:51.682Z,29.18
2018-06-10T14:05:20.431Z,28.91
2018-06-10T14:07:49.034Z,28.68
2018-06-10T14:10:17.682Z,28.49
2018-06-10T14:12:46.259Z,27.77
2018-06-10T14:15:14.876Z,27.52
2018-06-10T14:17:43.451Z,27.22
2018-06-10T14:20:12.127Z,26.98
2018-06-10T14:22:40.728Z,27.41
2018-06-10T14:25:09.364Z,27.59
2018-06-10T14:27:37.921Z,28.32
2018-06-10T14:30:07.997Z,28.93
2018-06-10T14:32:36.667Z,29.26
2018-06-10T14:35:05.288Z,28.99
2018-06-10T14:37:33.906Z,28.75
2018-06-10T14:40:02.458Z,28.64
2018-06-10T14:42:31.051Z,28.63
2018-06-10T14:45:00.363Z,28.40
2018-06-10T14:47:28.977Z,28.42
2018-06-10T14:49:57.813Z,28.08
2018-06-10T14:52:26.435Z,28.66
2018-06-10T14:54:55.088Z,29.13
2018-06-10T14:57:23.693Z,29.13
2018-06-10T14:59:52.511Z,29.17
2018-06-10T15:02:21.252Z,29.07
2018-06-10T15:04:50.057Z,28.84
2018-06-10T15:07:18.687Z,28.48
2018-06-10T15:09:47.220Z,28.59
2018-06-10T15:12:15.851Z,28.42
2018-06-10T15:14:44.519Z,28.30
2018-06-10T15:17:13.144Z,28.11
2018-06-10T15:19:41.736Z,27.62
2018-06-10T15:22:10.430Z,27.62
2018-06-10T15:24:38.990Z,27.51
2018-06-10T15:27:07.833Z,27.39
2018-06-10T15:29:36.459Z,27.29
2018-06-10T15:32:05.154Z,27.26
2018-06-10T15:34:33.754Z,27.37
2018-06-10T15:37:02.357Z,27.42
2018-06-10T15:39:30.910Z,27.38
2018-06-10T15:41:59.590Z,27.34
2018-06-10T15:44:28.251Z,27.05
2018-06-10T15:46:56.866Z,27.01
2018-06-10T15:49:25.428Z,27.16
2018-06-10T15:51:54.079Z,27.45
2018-06-10T15:54:22.714Z,27.49
2018-06-10T15:56:51.333Z,27.48
2018-06-10T15:59:20.110Z,27.47
2018-06-10T16:01:48.716Z,27.44
2018-06-10T16:04:17.349Z,27.40
2018-06-10T16:06:45.932Z,27.27
2018-06-10T16:09:14.825Z,27.64
2018-06-10T16:11:43.452Z,27.74
2018-06-10T16:14:12.038Z,27.75
2018-06-10T16:16:40.624Z,27.85
2018-06-10T16:19:09.232Z,28.12
2018-06-10T16:21:37.941Z,28.44
2018-06-10T16:24:06.629Z,28.60
2018-06-10T16:26:35.220Z,28.59
2018-06-10T16:29:04.061Z,28.55
2018-06-10T16:31:32.924Z,28.44
2018-06-10T16:34:01.945Z,28.21
2018-06-10T16:36:30.538Z,28.26
2018-06-10T16:38:59.200Z,27.94
2018-06-10T16:41:27.854Z,27.92
2018-06-10T16:43:56.495Z,27.85
2018-06-10T16:46:25.332Z,27.81
2018-06-10T16:48:54.017Z,27.56
2018-06-10T16:51:22.601Z,27.56
2018-06-10T16:53:51.240Z,27.47
2018-06-10T16:56:19.838Z,27.72
2018-06-10T16:58:48.416Z,27.86
2018-06-10T17:01:17.075Z,27.87
2018-06-10T17:03:45.922Z,27.61
2018-06-10T17:06:14.590Z,27.63
2018-06-10T17:08:43.144Z,27.63
2018-06-10T17:11:11.794Z,27.49
2018-06-10T17:13:40.385Z,27.64
2018-06-10T17:16:09.016Z,27.87
2018-06-10T17:18:37.740Z,28.08
2018-06-10T17:21:06.443Z,28.04
2018-06-10T17:23:35.044Z,28.20
2018-06-10T17:26:03.687Z,27.85
2018-06-10T17:28:32.265Z,27.84
2018-06-10T17:31:01.007Z,27.84
2018-06-10T17:33:29.604Z,28.06
2018-06-10T17:35:58.262Z,28.09
2018-06-10T17:38:26.872Z,27.79
2018-06-10T17:40:55.546Z,27.62
2018-06-10T17:43:24.204Z,27.80
2018-06-10T17:45:52.850Z,27.77
2018-06-10T17:48:21.574Z,27.50
2018-06-10T17:50:50.203Z,27.40
2018-06-10T17:53:18.825Z,27.38
2018-06-10T17:55:47.416Z,27.35
2018-06-10T17:58:16.017Z,27.32
2018-06-10T18:00:44.638Z,27.17
2018-06-10T18:03:13.270Z,27.13
2018-06-10T18:05:41.963Z,27.14
2018-06-10T18:08:10.582Z,27.13
2018-06-10T18:10:39.206Z,27.13
2018-06-10T18:13:07.934Z,27.19
2018-06-10T18:15:36.910Z,27.13
2018-06-10T18:18:05.676Z,27.05
2018-06-10T18:20:34.368Z,26.75
2018-06-10T18:23:03.058Z,26.81
2018-06-10T18:25:31.805Z,26.72
2018-06-10T18:28:00.472Z,26.67
2018-06-10T18:30:29.103Z,26.75
2018-06-10T18:32:57.921Z,26.62
2018-06-10T18:35:26.538Z,26.55
2018-06-10T18:37:55.368Z,26.44
2018-06-10T18:40:23.990Z,26.35
2018-06-10T18:42:52.736Z,26.24
2018-06-10T18:45:21.440Z,26.31
2018-06-10T18:47:50.082Z,26.16
2018-06-10T18:50:18.785Z,26.10
2018-06-10T18:52:47.364Z,26.12
2018-06-10T18:55:15.985Z,26.10
2018-06-10T18:57:44.802Z,25.86
2018-06-10T19:00:13.457Z,25.75
2018-06-10T19:02:42.040Z,25.64
2018-06-10T19:05:10.866Z,25.62
2018-06-10T19:07:39.871Z,25.07
2018-06-10T19:10:08.513Z,25.56
2018-06-10T19:12:37.175Z,25.44
2018-06-10T19:15:06.109Z,25.38
2018-06-10T19:17:34.727Z,25.30
2018-06-10T19:20:03.447Z,25.27
2018-06-10T19:22:32.174Z,25.20
2018-06-10T19:25:01.038Z,25.15
2018-06-10T19:27:29.818Z,25.15
2018-06-10T19:29:58.392Z,25.07
2018-06-10T19:32:27.009Z,25.15
2018-06-10T19:34:55.674Z,25.08
2018-06-10T19:37:24.424Z,25.01
2018-06-10T19:39:53.197Z,25.09
2018-06-10T19:42:21.876Z,24.89
2018-06-10T19:44:50.484Z,24.79
2018-06-10T19:47:19.089Z,24.80
2018-06-10T19:49:48.762Z,24.70
2018-06-10T19:52:17.381Z,24.63
2018-06-10T19:54:46.078Z,24.78
2018-06-10T19:57:14.954Z,24.82
2018-06-10T19:59:43.620Z,24.87
2018-06-10T20:02:12.306Z,24.85
2018-06-10T20:04:41.006Z,24.96
2018-06-10T20:07:09.693Z,25.31
2018-06-10T20:09:38.649Z,25.80
2018-06-10T20:12:07.341Z,26.19
2018-06-10T20:14:36.037Z,26.75
2018-06-10T20:17:04.832Z,26.74
2018-06-10T20:19:33.432Z,26.42
2018-06-10T20:22:02.268Z,25.99
2018-06-10T20:24:30.916Z,26.13
2018-06-10T20:26:59.637Z,26.35
2018-06-10T20:29:28.314Z,26.62
2018-06-10T20:31:57.092Z,26.72
2018-06-10T20:34:25.700Z,26.83
2018-06-10T20:36:54.375Z,26.93
2018-06-10T20:39:22.983Z,26.29
2018-06-10T20:41:51.763Z,26.08
2018-06-10T20:44:20.393Z,25.67
2018-06-10T20:46:49.344Z,25.33
2018-06-10T20:49:18.096Z,24.95
2018-06-10T20:51:46.895Z,24.70
2018-06-10T20:54:15.752Z,24.57
2018-06-10T20:56:44.365Z,24.61
2018-06-10T20:59:13.150Z,24.53
2018-06-10T21:01:41.809Z,24.35
2018-06-10T21:04:10.448Z,24.21
2018-06-10T21:06:39.073Z,24.27
2018-06-10T21:09:08.885Z,24.25
2018-06-10T21:11:37.474Z,24.19
2018-06-10T21:14:06.192Z,23.90
2018-06-10T21:16:34.792Z,23.87
2018-06-10T21:19:03.421Z,23.99
2018-06-10T21:21:32.097Z,24.04
2018-06-10T21:24:00.769Z,24.18
2018-06-10T21:26:29.532Z,24.23
2018-06-10T21:28:58.196Z,24.32
2018-06-10T21:31:26.780Z,24.39
2018-06-10T21:33:55.801Z,24.40
2018-06-10T21:36:24.449Z,24.33
2018-06-10T21:38:53.029Z,24.28
2018-06-10T21:41:21.625Z,24.07
2018-06-10T21:43:50.241Z,24.01
2018-06-10T21:46:18.820Z,23.90
2018-06-10T21:48:47.436Z,23.76
2018-06-10T21:51:16.190Z,23.64
2018-06-10T21:53:44.758Z,23.50
2018-06-10T21:56:13.410Z,23.33
2018-06-10T21:58:41.998Z,23.32
2018-06-10T22:01:10.798Z,23.12
2018-06-10T22:03:39.368Z,22.86
2018-06-10T22:06:08.034Z,22.84
2018-06-10T22:08:36.701Z,22.91
2018-06-10T22:11:05.357Z,23.03
2018-06-10T22:13:34.087Z,23.02
2018-06-10T22:16:02.829Z,23.08
2018-06-10T22:18:32.457Z,22.90
2018-06-10T22:21:01.006Z,22.88
2018-06-10T22:23:29.727Z,22.67
2018-06-10T22:25:58.457Z,22.43
2018-06-10T22:28:27.143Z,22.46
2018-06-10T22:30:55.709Z,22.30
2018-06-10T22:33:24.320Z,22.23
2018-06-10T22:35:52.869Z,22.28
2018-06-10T22:38:21.456Z,22.38
2018-06-10T22:40:50.016Z,22.42
2018-06-10T22:43:18.593Z,22.59
2018-06-10T22:45:47.161Z,22.54
2018-06-10T22:48:15.853Z,22.38
2018-06-10T22:50:44.737Z,22.37
2018-06-10T22:55:33.553Z,22.27
2018-06-10T22:58:02.439Z,22.06
2018-06-10T23:00:31.285Z,21.89
2018-06-10T23:03:00.208Z,21.92
2018-06-10T23:05:28.803Z,21.97
2018-06-10T23:07:57.377Z,21.92
2018-06-10T23:10:26.261Z,21.82
2018-06-10T23:12:54.945Z,21.85
2018-06-10T23:15:23.579Z,21.82
2018-06-10T23:17:52.445Z,21.62
2018-06-10T23:20:21.058Z,21.58
2018-06-10T23:22:49.627Z,21.65
2018-06-10T23:25:18.549Z,21.75
2018-06-10T23:27:47.091Z,21.76
2018-06-10T23:30:15.720Z,21.61
2018-06-10T23:32:44.321Z,21.58
2018-06-10T23:35:13.032Z,21.75
2018-06-10T23:37:41.605Z,21.91
2018-06-10T23:40:10.361Z,22.02
2018-06-10T23:42:38.958Z,21.87
2018-06-10T23:45:07.580Z,21.92
2018-06-10T23:47:36.173Z,22.01
2018-06-10T23:50:04.731Z,22.01
2018-06-10T23:52:33.338Z,21.93
2018-06-10T23:55:01.896Z,22.04
2018-06-10T23:57:30.532Z,22.07
2018-06-10T23:59:59.089Z,21.75
